Summit Point, West Virginia
Current Conditions -  °F | °C
As of 2:53 PM on Saturday 20 Dec 2014 (Local Time) from KMRB Reporting Station
Overcast Overcast  
Wind Chill: 35°   Ceiling: 12000
Heat Index: 35°   Visibility: 10mi
Dew Point: 18°   Wind: 0mph
Humidity: 50%   Direction: NA
Pressure: 30.23"   Gusts: NA
Location:  39.25°N, 77.96°W
Report Text: KMRB 201953Z 00000KT 10SM OVC120 02/M08 A3023 RMK AO2 SLP244 T00171078
Loading
Personal Weather Stations






























Interactive Weather Map New forecast layout! Learn more

10-Day Weather Forecast

Advertisements
Track Severe Weather on mobile